sensor_id;sensor_type;location;lat;lon;timestamp;P1;durP1;ratioP1;P2;durP2;ratioP2
19554;SDS011;9924;50.828;6.440;2024-01-27T00:01:42;8.13;;;2.47;;
19554;SDS011;9924;50.828;6.440;2024-01-27T00:04:08;14.67;;;2.93;;
19554;SDS011;9924;50.828;6.440;2024-01-27T00:06:34;8.77;;;2.90;;
19554;SDS011;9924;50.828;6.440;2024-01-27T00:08:59;8.37;;;2.40;;
19554;SDS011;9924;50.828;6.440;2024-01-27T00:11:25;11.80;;;2.87;;
19554;SDS011;9924;50.828;6.440;2024-01-27T00:13:51;9.13;;;2.23;;
19554;SDS011;9924;50.828;6.440;2024-01-27T00:16:17;6.13;;;2.40;;
19554;SDS011;9924;50.828;6.440;2024-01-27T00:18:42;7.13;;;2.50;;
19554;SDS011;9924;50.828;6.440;2024-01-27T00:21:08;9.73;;;2.60;;
19554;SDS011;9924;50.828;6.440;2024-01-27T00:23:34;13.17;;;2.73;;
19554;SDS011;9924;50.828;6.440;2024-01-27T00:26:00;8.20;;;2.90;;
19554;SDS011;9924;50.828;6.440;2024-01-27T00:28:26;8.23;;;2.40;;
19554;SDS011;9924;50.828;6.440;2024-01-27T00:30:51;13.20;;;3.00;;
19554;SDS011;9924;50.828;6.440;2024-01-27T00:33:17;14.27;;;2.37;;
19554;SDS011;9924;50.828;6.440;2024-01-27T00:35:43;12.07;;;2.63;;
19554;SDS011;9924;50.828;6.440;2024-01-27T00:38:09;8.53;;;3.10;;
19554;SDS011;9924;50.828;6.440;2024-01-27T00:40:35;7.93;;;2.60;;
19554;SDS011;9924;50.828;6.440;2024-01-27T00:43:03;11.67;;;3.00;;
19554;SDS011;9924;50.828;6.440;2024-01-27T00:45:29;10.97;;;2.77;;
19554;SDS011;9924;50.828;6.440;2024-01-27T00:47:55;13.00;;;2.37;;
19554;SDS011;9924;50.828;6.440;2024-01-27T00:50:22;7.83;;;2.30;;
19554;SDS011;9924;50.828;6.440;2024-01-27T00:52:47;11.37;;;2.63;;
19554;SDS011;9924;50.828;6.440;2024-01-27T00:55:13;6.50;;;2.10;;
19554;SDS011;9924;50.828;6.440;2024-01-27T00:57:39;11.47;;;3.07;;
19554;SDS011;9924;50.828;6.440;2024-01-27T01:00:06;7.20;;;2.40;;
19554;SDS011;9924;50.828;6.440;2024-01-27T01:02:33;9.73;;;2.80;;
19554;SDS011;9924;50.828;6.440;2024-01-27T01:04:58;11.97;;;3.10;;
19554;SDS011;9924;50.828;6.440;2024-01-27T01:07:24;8.67;;;2.70;;
19554;SDS011;9924;50.828;6.440;2024-01-27T01:09:50;9.77;;;2.83;;
19554;SDS011;9924;50.828;6.440;2024-01-27T01:12:15;8.70;;;2.67;;
19554;SDS011;9924;50.828;6.440;2024-01-27T01:14:41;10.53;;;2.97;;
19554;SDS011;9924;50.828;6.440;2024-01-27T01:17:08;9.40;;;3.13;;
19554;SDS011;9924;50.828;6.440;2024-01-27T01:19:34;7.60;;;2.27;;
19554;SDS011;9924;50.828;6.440;2024-01-27T01:22:01;9.27;;;2.77;;
19554;SDS011;9924;50.828;6.440;2024-01-27T01:24:27;9.10;;;2.50;;
19554;SDS011;9924;50.828;6.440;2024-01-27T01:26:53;8.57;;;2.70;;
19554;SDS011;9924;50.828;6.440;2024-01-27T01:29:18;11.47;;;2.60;;
19554;SDS011;9924;50.828;6.440;2024-01-27T01:31:44;10.63;;;2.67;;
19554;SDS011;9924;50.828;6.440;2024-01-27T01:34:09;7.70;;;2.30;;
19554;SDS011;9924;50.828;6.440;2024-01-27T01:36:35;9.53;;;2.90;;
19554;SDS011;9924;50.828;6.440;2024-01-27T01:39:01;10.43;;;2.90;;
19554;SDS011;9924;50.828;6.440;2024-01-27T01:41:27;9.00;;;2.17;;
19554;SDS011;9924;50.828;6.440;2024-01-27T01:43:53;10.20;;;2.27;;
19554;SDS011;9924;50.828;6.440;2024-01-27T01:46:19;8.73;;;2.30;;
19554;SDS011;9924;50.828;6.440;2024-01-27T01:48:44;12.87;;;2.93;;
19554;SDS011;9924;50.828;6.440;2024-01-27T01:51:10;11.07;;;2.27;;
19554;SDS011;9924;50.828;6.440;2024-01-27T01:53:37;7.77;;;2.47;;
19554;SDS011;9924;50.828;6.440;2024-01-27T01:56:02;9.57;;;2.73;;
19554;SDS011;9924;50.828;6.440;2024-01-27T01:58:29;9.63;;;2.70;;
19554;SDS011;9924;50.828;6.440;2024-01-27T02:00:59;7.00;;;2.83;;
19554;SDS011;9924;50.828;6.440;2024-01-27T02:03:26;7.37;;;3.30;;
19554;SDS011;9924;50.828;6.440;2024-01-27T02:05:52;5.27;;;2.07;;
19554;SDS011;9924;50.828;6.440;2024-01-27T02:08:17;15.70;;;2.33;;
19554;SDS011;9924;50.828;6.440;2024-01-27T02:10:43;5.57;;;2.00;;
19554;SDS011;9924;50.828;6.440;2024-01-27T02:13:18;8.93;;;2.40;;
19554;SDS011;9924;50.828;6.440;2024-01-27T02:15:45;5.47;;;1.60;;
19554;SDS011;9924;50.828;6.440;2024-01-27T02:18:11;9.10;;;1.90;;
19554;SDS011;9924;50.828;6.440;2024-01-27T02:20:37;11.20;;;2.60;;
19554;SDS011;9924;50.828;6.440;2024-01-27T02:23:03;9.97;;;2.03;;
19554;SDS011;9924;50.828;6.440;2024-01-27T02:25:33;11.43;;;2.07;;
19554;SDS011;9924;50.828;6.440;2024-01-27T02:27:59;6.03;;;1.90;;
19554;SDS011;9924;50.828;6.440;2024-01-27T02:30:25;17.60;;;2.30;;
19554;SDS011;9924;50.828;6.440;2024-01-27T02:32:51;8.20;;;2.17;;
19554;SDS011;9924;50.828;6.440;2024-01-27T02:35:17;7.33;;;2.60;;
19554;SDS011;9924;50.828;6.440;2024-01-27T02:37:43;11.20;;;2.03;;
19554;SDS011;9924;50.828;6.440;2024-01-27T02:40:09;11.90;;;1.90;;
19554;SDS011;9924;50.828;6.440;2024-01-27T02:42:35;10.47;;;2.10;;
19554;SDS011;9924;50.828;6.440;2024-01-27T02:45:01;7.10;;;1.83;;
19554;SDS011;9924;50.828;6.440;2024-01-27T02:47:28;13.63;;;2.20;;
19554;SDS011;9924;50.828;6.440;2024-01-27T02:49:53;7.73;;;1.90;;
19554;SDS011;9924;50.828;6.440;2024-01-27T02:52:19;14.70;;;1.90;;
19554;SDS011;9924;50.828;6.440;2024-01-27T02:54:45;16.17;;;2.37;;
19554;SDS011;9924;50.828;6.440;2024-01-27T02:57:10;11.97;;;1.87;;
19554;SDS011;9924;50.828;6.440;2024-01-27T02:59:36;12.17;;;1.70;;
19554;SDS011;9924;50.828;6.440;2024-01-27T03:02:04;14.40;;;2.30;;
19554;SDS011;9924;50.828;6.440;2024-01-27T03:04:30;13.57;;;2.33;;
19554;SDS011;9924;50.828;6.440;2024-01-27T03:06:56;10.03;;;2.23;;
19554;SDS011;9924;50.828;6.440;2024-01-27T03:09:21;7.33;;;2.80;;
19554;SDS011;9924;50.828;6.440;2024-01-27T03:11:47;15.07;;;1.90;;
19554;SDS011;9924;50.828;6.440;2024-01-27T03:14:13;8.97;;;1.77;;
19554;SDS011;9924;50.828;6.440;2024-01-27T03:16:39;11.57;;;2.13;;
19554;SDS011;9924;50.828;6.440;2024-01-27T03:19:05;4.63;;;1.90;;
19554;SDS011;9924;50.828;6.440;2024-01-27T03:21:31;9.23;;;1.80;;
19554;SDS011;9924;50.828;6.440;2024-01-27T03:23:57;8.27;;;2.20;;
19554;SDS011;9924;50.828;6.440;2024-01-27T03:26:23;12.53;;;2.90;;
19554;SDS011;9924;50.828;6.440;2024-01-27T03:28:50;6.70;;;1.37;;
19554;SDS011;9924;50.828;6.440;2024-01-27T03:31:15;7.50;;;1.53;;
19554;SDS011;9924;50.828;6.440;2024-01-27T03:33:41;9.47;;;2.23;;
19554;SDS011;9924;50.828;6.440;2024-01-27T03:36:10;11.33;;;1.77;;
19554;SDS011;9924;50.828;6.440;2024-01-27T03:38:37;10.10;;;2.63;;
19554;SDS011;9924;50.828;6.440;2024-01-27T03:41:03;4.47;;;1.87;;
19554;SDS011;9924;50.828;6.440;2024-01-27T03:43:29;7.17;;;1.70;;
19554;SDS011;9924;50.828;6.440;2024-01-27T03:45:56;11.33;;;1.73;;
19554;SDS011;9924;50.828;6.440;2024-01-27T03:48:22;11.23;;;1.63;;
19554;SDS011;9924;50.828;6.440;2024-01-27T03:50:47;17.23;;;1.80;;
19554;SDS011;9924;50.828;6.440;2024-01-27T03:53:13;8.37;;;1.80;;
19554;SDS011;9924;50.828;6.440;2024-01-27T03:55:39;10.40;;;2.17;;
19554;SDS011;9924;50.828;6.440;2024-01-27T03:58:04;8.30;;;1.40;;
19554;SDS011;9924;50.828;6.440;2024-01-27T04:00:31;5.37;;;1.50;;
19554;SDS011;9924;50.828;6.440;2024-01-27T04:03:01;2.97;;;1.53;;
19554;SDS011;9924;50.828;6.440;2024-01-27T04:05:27;5.90;;;2.00;;
19554;SDS011;9924;50.828;6.440;2024-01-27T04:07:54;6.67;;;1.50;;
19554;SDS011;9924;50.828;6.440;2024-01-27T04:10:20;9.17;;;1.80;;
19554;SDS011;9924;50.828;6.440;2024-01-27T04:12:46;7.13;;;1.97;;
19554;SDS011;9924;50.828;6.440;2024-01-27T04:15:11;14.90;;;2.77;;
19554;SDS011;9924;50.828;6.440;2024-01-27T04:17:37;14.23;;;2.43;;
19554;SDS011;9924;50.828;6.440;2024-01-27T04:20:03;6.67;;;1.50;;
19554;SDS011;9924;50.828;6.440;2024-01-27T04:22:29;7.30;;;1.63;;
19554;SDS011;9924;50.828;6.440;2024-01-27T04:24:55;9.40;;;2.60;;
19554;SDS011;9924;50.828;6.440;2024-01-27T04:27:21;5.87;;;1.70;;
19554;SDS011;9924;50.828;6.440;2024-01-27T04:29:47;6.10;;;1.63;;
19554;SDS011;9924;50.828;6.440;2024-01-27T04:32:13;7.17;;;1.80;;
19554;SDS011;9924;50.828;6.440;2024-01-27T04:34:38;9.17;;;2.27;;
19554;SDS011;9924;50.828;6.440;2024-01-27T04:37:04;12.03;;;2.17;;
19554;SDS011;9924;50.828;6.440;2024-01-27T04:39:30;13.27;;;2.17;;
19554;SDS011;9924;50.828;6.440;2024-01-27T04:41:56;9.33;;;2.00;;
19554;SDS011;9924;50.828;6.440;2024-01-27T04:44:22;11.37;;;1.97;;
19554;SDS011;9924;50.828;6.440;2024-01-27T04:46:47;6.23;;;1.60;;
19554;SDS011;9924;50.828;6.440;2024-01-27T04:49:16;5.13;;;1.77;;
19554;SDS011;9924;50.828;6.440;2024-01-27T04:51:42;9.43;;;1.77;;
19554;SDS011;9924;50.828;6.440;2024-01-27T04:54:08;7.20;;;1.77;;
19554;SDS011;9924;50.828;6.440;2024-01-27T04:56:34;9.53;;;2.20;;
19554;SDS011;9924;50.828;6.440;2024-01-27T04:59:00;10.70;;;2.20;;
19554;SDS011;9924;50.828;6.440;2024-01-27T05:01:26;6.57;;;2.17;;
19554;SDS011;9924;50.828;6.440;2024-01-27T05:03:52;7.33;;;2.10;;
19554;SDS011;9924;50.828;6.440;2024-01-27T05:06:18;9.17;;;2.33;;
19554;SDS011;9924;50.828;6.440;2024-01-27T05:08:43;6.90;;;2.03;;
19554;SDS011;9924;50.828;6.440;2024-01-27T05:11:09;8.17;;;2.10;;
19554;SDS011;9924;50.828;6.440;2024-01-27T05:13:35;8.93;;;1.97;;
19554;SDS011;9924;50.828;6.440;2024-01-27T05:16:02;9.40;;;2.10;;
19554;SDS011;9924;50.828;6.440;2024-01-27T05:18:28;9.97;;;2.00;;
19554;SDS011;9924;50.828;6.440;2024-01-27T05:20:54;5.77;;;1.83;;
19554;SDS011;9924;50.828;6.440;2024-01-27T05:23:20;12.57;;;2.50;;
19554;SDS011;9924;50.828;6.440;2024-01-27T05:25:45;10.67;;;2.27;;
19554;SDS011;9924;50.828;6.440;2024-01-27T05:28:11;15.10;;;2.50;;
19554;SDS011;9924;50.828;6.440;2024-01-27T05:30:36;16.63;;;2.00;;
19554;SDS011;9924;50.828;6.440;2024-01-27T05:33:02;10.00;;;2.47;;
19554;SDS011;9924;50.828;6.440;2024-01-27T05:35:29;13.27;;;2.00;;
19554;SDS011;9924;50.828;6.440;2024-01-27T05:37:54;9.20;;;2.43;;
19554;SDS011;9924;50.828;6.440;2024-01-27T05:40:21;9.77;;;2.47;;
19554;SDS011;9924;50.828;6.440;2024-01-27T05:42:46;8.47;;;1.90;;
19554;SDS011;9924;50.828;6.440;2024-01-27T05:45:12;8.17;;;2.20;;
19554;SDS011;9924;50.828;6.440;2024-01-27T05:47:38;7.23;;;2.10;;
19554;SDS011;9924;50.828;6.440;2024-01-27T05:50:04;11.50;;;1.93;;
19554;SDS011;9924;50.828;6.440;2024-01-27T05:52:32;10.43;;;2.00;;
19554;SDS011;9924;50.828;6.440;2024-01-27T05:54:58;5.47;;;2.10;;
19554;SDS011;9924;50.828;6.440;2024-01-27T05:57:24;10.90;;;3.33;;
19554;SDS011;9924;50.828;6.440;2024-01-27T05:59:49;12.20;;;3.13;;
19554;SDS011;9924;50.828;6.440;2024-01-27T06:02:15;9.63;;;2.67;;
19554;SDS011;9924;50.828;6.440;2024-01-27T06:04:42;7.67;;;1.90;;
19554;SDS011;9924;50.828;6.440;2024-01-27T06:07:08;7.07;;;2.40;;
19554;SDS011;9924;50.828;6.440;2024-01-27T06:09:34;9.77;;;2.53;;
19554;SDS011;9924;50.828;6.440;2024-01-27T06:12:01;11.17;;;2.57;;
19554;SDS011;9924;50.828;6.440;2024-01-27T06:14:27;7.17;;;2.80;;
19554;SDS011;9924;50.828;6.440;2024-01-27T06:16:53;13.17;;;5.10;;
19554;SDS011;9924;50.828;6.440;2024-01-27T06:19:19;12.83;;;4.07;;
19554;SDS011;9924;50.828;6.440;2024-01-27T06:21:44;7.03;;;3.30;;
19554;SDS011;9924;50.828;6.440;2024-01-27T06:24:10;10.47;;;2.77;;
19554;SDS011;9924;50.828;6.440;2024-01-27T06:26:35;6.03;;;1.73;;
19554;SDS011;9924;50.828;6.440;2024-01-27T06:29:02;7.70;;;2.30;;
19554;SDS011;9924;50.828;6.440;2024-01-27T06:31:29;14.60;;;2.50;;
19554;SDS011;9924;50.828;6.440;2024-01-27T06:33:54;9.63;;;2.67;;
19554;SDS011;9924;50.828;6.440;2024-01-27T06:36:20;9.57;;;2.53;;
19554;SDS011;9924;50.828;6.440;2024-01-27T06:38:49;14.47;;;3.27;;
19554;SDS011;9924;50.828;6.440;2024-01-27T06:41:15;8.43;;;2.70;;
19554;SDS011;9924;50.828;6.440;2024-01-27T06:43:41;8.43;;;1.97;;
19554;SDS011;9924;50.828;6.440;2024-01-27T06:46:07;10.87;;;2.10;;
19554;SDS011;9924;50.828;6.440;2024-01-27T06:48:33;9.60;;;2.50;;
19554;SDS011;9924;50.828;6.440;2024-01-27T06:50:59;9.70;;;2.27;;
19554;SDS011;9924;50.828;6.440;2024-01-27T06:53:24;11.87;;;2.40;;
19554;SDS011;9924;50.828;6.440;2024-01-27T06:55:50;5.93;;;1.80;;
19554;SDS011;9924;50.828;6.440;2024-01-27T06:58:16;11.00;;;2.30;;
19554;SDS011;9924;50.828;6.440;2024-01-27T07:00:42;8.63;;;2.93;;
19554;SDS011;9924;50.828;6.440;2024-01-27T07:03:07;15.93;;;2.70;;
19554;SDS011;9924;50.828;6.440;2024-01-27T07:05:33;6.37;;;2.20;;
19554;SDS011;9924;50.828;6.440;2024-01-27T07:08:04;10.57;;;2.20;;
19554;SDS011;9924;50.828;6.440;2024-01-27T07:10:31;7.57;;;2.30;;
19554;SDS011;9924;50.828;6.440;2024-01-27T07:12:57;7.93;;;2.97;;
19554;SDS011;9924;50.828;6.440;2024-01-27T07:15:22;9.53;;;2.80;;
19554;SDS011;9924;50.828;6.440;2024-01-27T07:17:48;9.50;;;2.83;;
19554;SDS011;9924;50.828;6.440;2024-01-27T07:20:14;7.20;;;2.30;;
19554;SDS011;9924;50.828;6.440;2024-01-27T07:22:40;12.93;;;3.00;;
19554;SDS011;9924;50.828;6.440;2024-01-27T07:25:07;5.50;;;2.60;;
19554;SDS011;9924;50.828;6.440;2024-01-27T07:27:35;8.90;;;2.73;;
19554;SDS011;9924;50.828;6.440;2024-01-27T07:30:01;8.13;;;2.17;;
19554;SDS011;9924;50.828;6.440;2024-01-27T07:32:27;6.93;;;2.73;;
19554;SDS011;9924;50.828;6.440;2024-01-27T07:34:53;7.67;;;2.63;;
19554;SDS011;9924;50.828;6.440;2024-01-27T07:37:18;12.03;;;3.10;;
19554;SDS011;9924;50.828;6.440;2024-01-27T07:39:46;15.00;;;2.90;;
19554;SDS011;9924;50.828;6.440;2024-01-27T07:42:13;6.97;;;2.70;;
19554;SDS011;9924;50.828;6.440;2024-01-27T07:44:39;6.53;;;2.23;;
19554;SDS011;9924;50.828;6.440;2024-01-27T07:47:05;11.83;;;2.67;;
19554;SDS011;9924;50.828;6.440;2024-01-27T07:49:30;12.83;;;2.70;;
19554;SDS011;9924;50.828;6.440;2024-01-27T07:51:56;16.13;;;2.70;;
19554;SDS011;9924;50.828;6.440;2024-01-27T07:54:22;7.87;;;2.40;;
19554;SDS011;9924;50.828;6.440;2024-01-27T07:56:48;12.00;;;2.50;;
19554;SDS011;9924;50.828;6.440;2024-01-27T07:59:13;7.43;;;2.20;;
19554;SDS011;9924;50.828;6.440;2024-01-27T08:01:39;11.90;;;2.17;;
19554;SDS011;9924;50.828;6.440;2024-01-27T08:04:06;8.63;;;2.47;;
19554;SDS011;9924;50.828;6.440;2024-01-27T08:06:31;10.67;;;2.90;;
19554;SDS011;9924;50.828;6.440;2024-01-27T08:08:57;11.03;;;2.57;;
19554;SDS011;9924;50.828;6.440;2024-01-27T08:11:23;12.30;;;3.33;;
19554;SDS011;9924;50.828;6.440;2024-01-27T08:13:49;9.73;;;2.43;;
19554;SDS011;9924;50.828;6.440;2024-01-27T08:16:15;8.63;;;2.57;;
19554;SDS011;9924;50.828;6.440;2024-01-27T08:18:42;14.13;;;3.03;;
19554;SDS011;9924;50.828;6.440;2024-01-27T08:21:09;13.90;;;2.93;;
19554;SDS011;9924;50.828;6.440;2024-01-27T08:23:35;9.50;;;2.63;;
19554;SDS011;9924;50.828;6.440;2024-01-27T08:26:00;8.70;;;2.50;;
19554;SDS011;9924;50.828;6.440;2024-01-27T08:28:26;10.53;;;2.53;;
19554;SDS011;9924;50.828;6.440;2024-01-27T08:30:52;7.70;;;2.43;;
19554;SDS011;9924;50.828;6.440;2024-01-27T08:33:18;7.93;;;2.50;;
19554;SDS011;9924;50.828;6.440;2024-01-27T08:35:46;9.57;;;3.37;;
19554;SDS011;9924;50.828;6.440;2024-01-27T08:38:12;8.87;;;2.90;;
19554;SDS011;9924;50.828;6.440;2024-01-27T08:40:38;7.33;;;3.67;;
19554;SDS011;9924;50.828;6.440;2024-01-27T08:43:04;13.07;;;4.23;;
19554;SDS011;9924;50.828;6.440;2024-01-27T08:45:31;24.07;;;5.50;;
19554;SDS011;9924;50.828;6.440;2024-01-27T08:47:57;9.33;;;3.53;;
19554;SDS011;9924;50.828;6.440;2024-01-27T08:50:22;13.53;;;3.57;;
19554;SDS011;9924;50.828;6.440;2024-01-27T08:52:48;10.53;;;3.23;;
19554;SDS011;9924;50.828;6.440;2024-01-27T08:55:13;13.83;;;3.90;;
19554;SDS011;9924;50.828;6.440;2024-01-27T08:57:39;10.90;;;3.40;;
19554;SDS011;9924;50.828;6.440;2024-01-27T09:00:05;15.77;;;3.50;;
19554;SDS011;9924;50.828;6.440;2024-01-27T09:02:31;17.87;;;3.17;;
19554;SDS011;9924;50.828;6.440;2024-01-27T09:04:57;11.13;;;2.80;;
19554;SDS011;9924;50.828;6.440;2024-01-27T09:07:23;10.57;;;3.20;;
19554;SDS011;9924;50.828;6.440;2024-01-27T09:09:49;13.47;;;3.33;;
19554;SDS011;9924;50.828;6.440;2024-01-27T09:12:14;11.20;;;3.47;;
19554;SDS011;9924;50.828;6.440;2024-01-27T09:14:40;8.23;;;3.40;;
19554;SDS011;9924;50.828;6.440;2024-01-27T09:17:06;13.20;;;3.03;;
19554;SDS011;9924;50.828;6.440;2024-01-27T09:19:31;11.87;;;3.27;;
19554;SDS011;9924;50.828;6.440;2024-01-27T09:21:57;8.97;;;3.20;;
19554;SDS011;9924;50.828;6.440;2024-01-27T09:24:23;8.40;;;2.47;;
19554;SDS011;9924;50.828;6.440;2024-01-27T09:26:49;12.07;;;2.60;;
19554;SDS011;9924;50.828;6.440;2024-01-27T09:29:14;10.13;;;2.45;;
19554;SDS011;9924;50.828;6.440;2024-01-27T09:31:40;9.55;;;2.50;;
19554;SDS011;9924;50.828;6.440;2024-01-27T09:34:05;10.35;;;2.53;;
19554;SDS011;9924;50.828;6.440;2024-01-27T09:36:31;14.02;;;2.35;;
19554;SDS011;9924;50.828;6.440;2024-01-27T09:38:57;9.40;;;2.40;;
19554;SDS011;9924;50.828;6.440;2024-01-27T09:41:24;15.70;;;2.63;;
19554;SDS011;9924;50.828;6.440;2024-01-27T09:43:57;8.68;;;2.10;;
19554;SDS011;9924;50.828;6.440;2024-01-27T09:46:29;8.05;;;2.05;;
19554;SDS011;9924;50.828;6.440;2024-01-27T09:48:56;8.07;;;2.00;;
19554;SDS011;9924;50.828;6.440;2024-01-27T09:51:22;8.95;;;1.98;;
19554;SDS011;9924;50.828;6.440;2024-01-27T09:53:51;7.93;;;2.40;;
19554;SDS011;9924;50.828;6.440;2024-01-27T09:56:17;9.00;;;2.60;;
19554;SDS011;9924;50.828;6.440;2024-01-27T09:58:44;13.45;;;2.45;;
19554;SDS011;9924;50.828;6.440;2024-01-27T10:01:11;6.15;;;1.95;;
19554;SDS011;9924;50.828;6.440;2024-01-27T10:03:38;12.57;;;2.28;;
19554;SDS011;9924;50.828;6.440;2024-01-27T10:06:09;6.93;;;1.70;;
19554;SDS011;9924;50.828;6.440;2024-01-27T10:08:35;9.32;;;2.00;;
19554;SDS011;9924;50.828;6.440;2024-01-27T10:11:05;8.80;;;1.92;;
19554;SDS011;9924;50.828;6.440;2024-01-27T10:13:33;6.32;;;2.22;;
19554;SDS011;9924;50.828;6.440;2024-01-27T10:16:05;7.30;;;1.92;;
19554;SDS011;9924;50.828;6.440;2024-01-27T10:18:32;7.70;;;1.60;;
19554;SDS011;9924;50.828;6.440;2024-01-27T10:20:59;7.55;;;1.90;;
19554;SDS011;9924;50.828;6.440;2024-01-27T10:23:25;7.47;;;1.60;;
19554;SDS011;9924;50.828;6.440;2024-01-27T10:25:51;7.18;;;1.92;;
19554;SDS011;9924;50.828;6.440;2024-01-27T10:28:17;4.75;;;1.58;;
19554;SDS011;9924;50.828;6.440;2024-01-27T10:30:43;6.82;;;1.85;;
19554;SDS011;9924;50.828;6.440;2024-01-27T10:33:10;4.22;;;1.45;;
19554;SDS011;9924;50.828;6.440;2024-01-27T10:35:38;5.22;;;1.60;;
19554;SDS011;9924;50.828;6.440;2024-01-27T10:38:08;4.97;;;1.52;;
19554;SDS011;9924;50.828;6.440;2024-01-27T10:40:35;8.38;;;2.22;;
19554;SDS011;9924;50.828;6.440;2024-01-27T10:43:08;7.05;;;2.40;;
19554;SDS011;9924;50.828;6.440;2024-01-27T10:45:37;7.82;;;2.00;;
19554;SDS011;9924;50.828;6.440;2024-01-27T10:48:04;5.03;;;1.83;;
19554;SDS011;9924;50.828;6.440;2024-01-27T10:50:36;5.15;;;1.75;;
19554;SDS011;9924;50.828;6.440;2024-01-27T10:53:09;5.07;;;1.40;;
19554;SDS011;9924;50.828;6.440;2024-01-27T10:55:40;6.57;;;1.40;;
19554;SDS011;9924;50.828;6.440;2024-01-27T10:58:08;7.63;;;1.70;;
19554;SDS011;9924;50.828;6.440;2024-01-27T11:00:37;6.82;;;1.92;;
19554;SDS011;9924;50.828;6.440;2024-01-27T11:03:03;6.70;;;2.50;;
19554;SDS011;9924;50.828;6.440;2024-01-27T11:05:31;8.93;;;1.70;;
19554;SDS011;9924;50.828;6.440;2024-01-27T11:08:00;6.93;;;1.67;;
19554;SDS011;9924;50.828;6.440;2024-01-27T11:10:27;7.97;;;1.60;;
19554;SDS011;9924;50.828;6.440;2024-01-27T11:13:00;8.40;;;1.40;;
19554;SDS011;9924;50.828;6.440;2024-01-27T11:15:33;7.60;;;1.50;;
19554;SDS011;9924;50.828;6.440;2024-01-27T11:17:58;8.27;;;1.30;;
19554;SDS011;9924;50.828;6.440;2024-01-27T11:20:31;6.53;;;1.52;;
19554;SDS011;9924;50.828;6.440;2024-01-27T11:23:08;4.82;;;1.23;;
19554;SDS011;9924;50.828;6.440;2024-01-27T11:25:35;5.57;;;1.17;;
19554;SDS011;9924;50.828;6.440;2024-01-27T11:28:10;5.38;;;1.30;;
19554;SDS011;9924;50.828;6.440;2024-01-27T11:30:39;9.38;;;1.70;;
19554;SDS011;9924;50.828;6.440;2024-01-27T11:33:09;5.07;;;1.20;;
19554;SDS011;9924;50.828;6.440;2024-01-27T11:35:35;5.82;;;1.50;;
19554;SDS011;9924;50.828;6.440;2024-01-27T11:38:01;8.15;;;1.70;;
19554;SDS011;9924;50.828;6.440;2024-01-27T11:40:27;6.80;;;1.70;;
19554;SDS011;9924;50.828;6.440;2024-01-27T11:42:54;6.65;;;1.30;;
19554;SDS011;9924;50.828;6.440;2024-01-27T11:45:21;3.10;;;1.42;;
19554;SDS011;9924;50.828;6.440;2024-01-27T11:47:47;9.55;;;1.70;;
19554;SDS011;9924;50.828;6.440;2024-01-27T11:50:13;6.72;;;1.17;;
19554;SDS011;9924;50.828;6.440;2024-01-27T11:52:38;5.78;;;1.15;;
19554;SDS011;9924;50.828;6.440;2024-01-27T11:55:04;2.53;;;1.30;;
19554;SDS011;9924;50.828;6.440;2024-01-27T11:57:30;6.60;;;1.50;;
19554;SDS011;9924;50.828;6.440;2024-01-27T11:59:56;4.50;;;1.10;;
19554;SDS011;9924;50.828;6.440;2024-01-27T12:02:22;5.38;;;1.30;;
19554;SDS011;9924;50.828;6.440;2024-01-27T12:04:48;5.80;;;1.45;;
19554;SDS011;9924;50.828;6.440;2024-01-27T12:07:15;9.02;;;1.40;;
19554;SDS011;9924;50.828;6.440;2024-01-27T12:09:43;6.28;;;1.48;;
19554;SDS011;9924;50.828;6.440;2024-01-27T12:12:10;6.32;;;1.50;;
19554;SDS011;9924;50.828;6.440;2024-01-27T12:14:41;6.93;;;1.48;;
19554;SDS011;9924;50.828;6.440;2024-01-27T12:17:11;6.63;;;1.45;;
19554;SDS011;9924;50.828;6.440;2024-01-27T12:19:37;7.13;;;1.40;;
19554;SDS011;9924;50.828;6.440;2024-01-27T12:22:04;8.90;;;1.55;;
19554;SDS011;9924;50.828;6.440;2024-01-27T12:24:30;4.82;;;1.30;;
19554;SDS011;9924;50.828;6.440;2024-01-27T12:26:59;5.72;;;1.40;;
19554;SDS011;9924;50.828;6.440;2024-01-27T12:29:25;6.88;;;1.40;;
19554;SDS011;9924;50.828;6.440;2024-01-27T12:31:51;8.48;;;1.85;;
19554;SDS011;9924;50.828;6.440;2024-01-27T12:34:17;4.97;;;1.40;;
19554;SDS011;9924;50.828;6.440;2024-01-27T12:36:44;6.97;;;1.25;;
19554;SDS011;9924;50.828;6.440;2024-01-27T12:39:10;3.17;;;1.40;;
19554;SDS011;9924;50.828;6.440;2024-01-27T12:41:35;8.60;;;2.03;;
19554;SDS011;9924;50.828;6.440;2024-01-27T12:44:01;4.45;;;1.50;;
19554;SDS011;9924;50.828;6.440;2024-01-27T12:46:27;5.32;;;1.30;;
19554;SDS011;9924;50.828;6.440;2024-01-27T12:48:53;5.55;;;1.38;;
19554;SDS011;9924;50.828;6.440;2024-01-27T12:51:19;7.10;;;1.40;;
19554;SDS011;9924;50.828;6.440;2024-01-27T12:53:45;5.32;;;1.63;;
19554;SDS011;9924;50.828;6.440;2024-01-27T12:56:11;5.95;;;1.55;;
19554;SDS011;9924;50.828;6.440;2024-01-27T12:58:38;7.25;;;1.35;;
19554;SDS011;9924;50.828;6.440;2024-01-27T13:01:05;8.32;;;1.50;;
19554;SDS011;9924;50.828;6.440;2024-01-27T13:03:31;10.23;;;1.75;;
19554;SDS011;9924;50.828;6.440;2024-01-27T13:05:57;7.07;;;1.83;;
19554;SDS011;9924;50.828;6.440;2024-01-27T13:08:23;6.78;;;1.60;;
19554;SDS011;9924;50.828;6.440;2024-01-27T13:10:49;11.50;;;1.80;;
19554;SDS011;9924;50.828;6.440;2024-01-27T13:13:15;5.60;;;1.48;;
19554;SDS011;9924;50.828;6.440;2024-01-27T13:15:41;5.45;;;1.35;;
19554;SDS011;9924;50.828;6.440;2024-01-27T13:18:08;6.57;;;1.58;;
19554;SDS011;9924;50.828;6.440;2024-01-27T13:20:35;5.53;;;1.50;;
19554;SDS011;9924;50.828;6.440;2024-01-27T13:23:01;4.60;;;1.42;;
19554;SDS011;9924;50.828;6.440;2024-01-27T13:25:27;5.35;;;1.58;;
19554;SDS011;9924;50.828;6.440;2024-01-27T13:27:52;4.75;;;1.30;;
19554;SDS011;9924;50.828;6.440;2024-01-27T13:30:18;5.13;;;1.42;;
19554;SDS011;9924;50.828;6.440;2024-01-27T13:32:44;4.10;;;1.70;;
19554;SDS011;9924;50.828;6.440;2024-01-27T13:35:10;6.88;;;1.30;;
19554;SDS011;9924;50.828;6.440;2024-01-27T13:37:36;6.15;;;1.92;;
19554;SDS011;9924;50.828;6.440;2024-01-27T13:40:05;6.03;;;1.77;;
19554;SDS011;9924;50.828;6.440;2024-01-27T13:42:32;5.82;;;1.70;;
19554;SDS011;9924;50.828;6.440;2024-01-27T13:44:58;7.03;;;1.58;;
19554;SDS011;9924;50.828;6.440;2024-01-27T13:47:24;7.20;;;1.35;;
19554;SDS011;9924;50.828;6.440;2024-01-27T13:49:51;4.55;;;1.27;;
19554;SDS011;9924;50.828;6.440;2024-01-27T13:52:17;5.85;;;1.50;;
19554;SDS011;9924;50.828;6.440;2024-01-27T13:54:43;4.20;;;2.35;;
19554;SDS011;9924;50.828;6.440;2024-01-27T13:57:08;3.00;;;1.30;;
19554;SDS011;9924;50.828;6.440;2024-01-27T13:59:35;7.50;;;1.40;;
19554;SDS011;9924;50.828;6.440;2024-01-27T14:02:01;5.70;;;1.40;;
19554;SDS011;9924;50.828;6.440;2024-01-27T14:04:26;4.70;;;1.30;;
19554;SDS011;9924;50.828;6.440;2024-01-27T14:06:52;8.52;;;1.55;;
19554;SDS011;9924;50.828;6.440;2024-01-27T14:09:22;6.95;;;1.50;;
19554;SDS011;9924;50.828;6.440;2024-01-27T14:11:48;8.13;;;1.38;;
19554;SDS011;9924;50.828;6.440;2024-01-27T14:14:14;7.90;;;1.58;;
19554;SDS011;9924;50.828;6.440;2024-01-27T14:16:43;5.50;;;1.45;;
19554;SDS011;9924;50.828;6.440;2024-01-27T14:19:10;6.88;;;1.27;;
19554;SDS011;9924;50.828;6.440;2024-01-27T14:21:36;6.07;;;1.35;;
19554;SDS011;9924;50.828;6.440;2024-01-27T14:24:02;7.22;;;1.90;;
19554;SDS011;9924;50.828;6.440;2024-01-27T14:26:31;6.07;;;1.80;;
19554;SDS011;9924;50.828;6.440;2024-01-27T14:28:57;5.00;;;1.80;;
19554;SDS011;9924;50.828;6.440;2024-01-27T14:31:22;8.05;;;1.92;;
19554;SDS011;9924;50.828;6.440;2024-01-27T14:33:48;6.43;;;1.60;;
19554;SDS011;9924;50.828;6.440;2024-01-27T14:36:14;7.70;;;1.50;;
19554;SDS011;9924;50.828;6.440;2024-01-27T14:38:40;5.85;;;1.42;;
19554;SDS011;9924;50.828;6.440;2024-01-27T14:41:06;4.43;;;1.48;;
19554;SDS011;9924;50.828;6.440;2024-01-27T14:43:32;7.95;;;1.80;;
19554;SDS011;9924;50.828;6.440;2024-01-27T14:45:59;10.38;;;2.05;;
19554;SDS011;9924;50.828;6.440;2024-01-27T14:48:24;7.63;;;1.80;;
19554;SDS011;9924;50.828;6.440;2024-01-27T14:50:50;11.13;;;2.13;;
19554;SDS011;9924;50.828;6.440;2024-01-27T14:53:26;13.38;;;1.70;;